sensor_id;sensor_type;location;lat;lon;timestamp;temperature;humidity
68648;SHT31;55632;51.962;16.116;2023-04-24T00:01:42;12.93;85.72
68648;SHT31;55632;51.962;16.116;2023-04-24T00:06:43;12.96;85.71
68648;SHT31;55632;51.962;16.116;2023-04-24T00:11:44;12.96;85.72
68648;SHT31;55632;51.962;16.116;2023-04-24T00:16:45;13.00;85.74
68648;SHT31;55632;51.962;16.116;2023-04-24T00:21:46;12.95;85.72
68648;SHT31;55632;51.962;16.116;2023-04-24T00:26:50;12.93;85.77
68648;SHT31;55632;51.962;16.116;2023-04-24T00:31:51;12.93;85.80
68648;SHT31;55632;51.962;16.116;2023-04-24T00:36:52;12.92;85.78
68648;SHT31;55632;51.962;16.116;2023-04-24T00:41:53;12.89;85.72
68648;SHT31;55632;51.962;16.116;2023-04-24T00:46:54;12.92;85.67
68648;SHT31;55632;51.962;16.116;2023-04-24T00:51:55;12.86;85.60
68648;SHT31;55632;51.962;16.116;2023-04-24T00:56:57;12.83;85.51
68648;SHT31;55632;51.962;16.116;2023-04-24T01:01:58;12.83;85.42
68648;SHT31;55632;51.962;16.116;2023-04-24T01:07:00;12.80;85.31
68648;SHT31;55632;51.962;16.116;2023-04-24T01:12:01;12.76;85.22
68648;SHT31;55632;51.962;16.116;2023-04-24T01:17:02;12.76;85.17
68648;SHT31;55632;51.962;16.116;2023-04-24T01:22:08;12.72;85.06
68648;SHT31;55632;51.962;16.116;2023-04-24T01:27:10;12.71;85.01
68648;SHT31;55632;51.962;16.116;2023-04-24T01:32:11;12.65;84.44
68648;SHT31;55632;51.962;16.116;2023-04-24T01:37:12;12.48;84.21
68648;SHT31;55632;51.962;16.116;2023-04-24T01:42:13;12.38;84.13
68648;SHT31;55632;51.962;16.116;2023-04-24T01:47:15;12.26;84.11
68648;SHT31;55632;51.962;16.116;2023-04-24T01:52:16;12.12;84.15
68648;SHT31;55632;51.962;16.116;2023-04-24T01:57:18;12.04;84.50
68648;SHT31;55632;51.962;16.116;2023-04-24T02:02:19;12.00;84.67
68648;SHT31;55632;51.962;16.116;2023-04-24T02:07:22;12.02;84.91
68648;SHT31;55632;51.962;16.116;2023-04-24T02:12:26;12.02;84.91
68648;SHT31;55632;51.962;16.116;2023-04-24T02:17:27;12.04;84.94
68648;SHT31;55632;51.962;16.116;2023-04-24T02:22:31;12.00;85.02
68648;SHT31;55632;51.962;16.116;2023-04-24T02:27:35;12.03;85.09
68648;SHT31;55632;51.962;16.116;2023-04-24T02:32:39;12.06;85.13
68648;SHT31;55632;51.962;16.116;2023-04-24T02:37:43;12.04;85.31
68648;SHT31;55632;51.962;16.116;2023-04-24T02:42:46;12.06;85.44
68648;SHT31;55632;51.962;16.116;2023-04-24T02:47:47;12.04;85.51
68648;SHT31;55632;51.962;16.116;2023-04-24T02:52:48;11.99;85.48
68648;SHT31;55632;51.962;16.116;2023-04-24T02:57:48;11.90;85.29
68648;SHT31;55632;51.962;16.116;2023-04-24T03:02:49;11.87;85.26
68648;SHT31;55632;51.962;16.116;2023-04-24T03:07:51;11.82;85.36
68648;SHT31;55632;51.962;16.116;2023-04-24T03:12:53;11.75;85.55
68648;SHT31;55632;51.962;16.116;2023-04-24T03:17:55;11.71;85.64
68648;SHT31;55632;51.962;16.116;2023-04-24T03:22:58;11.65;85.62
68648;SHT31;55632;51.962;16.116;2023-04-24T03:28:00;11.61;85.60
68648;SHT31;55632;51.962;16.116;2023-04-24T03:33:21;11.57;85.87
68648;SHT31;55632;51.962;16.116;2023-04-24T03:38:31;11.57;85.98
68648;SHT31;55632;51.962;16.116;2023-04-24T03:43:35;11.58;86.07
68648;SHT31;55632;51.962;16.116;2023-04-24T03:48:40;11.58;86.16
68648;SHT31;55632;51.962;16.116;2023-04-24T03:53:43;11.58;86.29
68648;SHT31;55632;51.962;16.116;2023-04-24T03:58:46;11.62;86.52
68648;SHT31;55632;51.962;16.116;2023-04-24T04:03:48;11.68;86.66
68648;SHT31;55632;51.962;16.116;2023-04-24T04:08:53;11.72;86.81
68648;SHT31;55632;51.962;16.116;2023-04-24T04:13:54;11.81;86.75
68648;SHT31;55632;51.962;16.116;2023-04-24T04:18:56;11.86;86.66
68648;SHT31;55632;51.962;16.116;2023-04-24T04:23:57;11.96;86.55
68648;SHT31;55632;51.962;16.116;2023-04-24T04:29:06;12.04;86.45
68648;SHT31;55632;51.962;16.116;2023-04-24T04:34:11;12.10;86.26
68648;SHT31;55632;51.962;16.116;2023-04-24T04:39:17;12.13;86.23
68648;SHT31;55632;51.962;16.116;2023-04-24T04:44:33;12.10;86.15
68648;SHT31;55632;51.962;16.116;2023-04-24T04:49:39;12.13;86.06
68648;SHT31;55632;51.962;16.116;2023-04-24T04:54:44;12.10;85.93
68648;SHT31;55632;51.962;16.116;2023-04-24T04:59:47;12.06;85.84
68648;SHT31;55632;51.962;16.116;2023-04-24T05:04:56;12.06;85.80
68648;SHT31;55632;51.962;16.116;2023-04-24T05:09:57;12.02;85.80
68648;SHT31;55632;51.962;16.116;2023-04-24T05:14:58;12.06;85.91
68648;SHT31;55632;51.962;16.116;2023-04-24T05:20:01;12.10;85.84
68648;SHT31;55632;51.962;16.116;2023-04-24T05:25:07;12.14;85.73
68648;SHT31;55632;51.962;16.116;2023-04-24T05:30:16;12.16;85.66
68648;SHT31;55632;51.962;16.116;2023-04-24T05:35:18;12.20;85.44
68648;SHT31;55632;51.962;16.116;2023-04-24T05:40:19;12.21;85.41
68648;SHT31;55632;51.962;16.116;2023-04-24T05:45:20;12.24;85.39
68648;SHT31;55632;51.962;16.116;2023-04-24T05:50:21;12.33;85.38
68648;SHT31;55632;51.962;16.116;2023-04-24T05:55:23;12.51;85.73
68648;SHT31;55632;51.962;16.116;2023-04-24T06:00:24;12.89;85.97
68648;SHT31;55632;51.962;16.116;2023-04-24T06:05:34;13.24;85.73
68648;SHT31;55632;51.962;16.116;2023-04-24T06:10:37;13.55;85.58
68648;SHT31;55632;51.962;16.116;2023-04-24T06:15:39;13.79;85.16
68648;SHT31;55632;51.962;16.116;2023-04-24T06:20:45;13.93;84.51
68648;SHT31;55632;51.962;16.116;2023-04-24T06:25:49;14.00;84.24
68648;SHT31;55632;51.962;16.116;2023-04-24T06:30:53;14.10;84.00
68648;SHT31;55632;51.962;16.116;2023-04-24T06:35:54;14.22;83.69
68648;SHT31;55632;51.962;16.116;2023-04-24T06:40:55;14.42;83.48
68648;SHT31;55632;51.962;16.116;2023-04-24T06:45:57;14.73;82.97
68648;SHT31;55632;51.962;16.116;2023-04-24T06:50:58;15.01;82.35
68648;SHT31;55632;51.962;16.116;2023-04-24T06:55:59;15.35;81.42
68648;SHT31;55632;51.962;16.116;2023-04-24T07:01:03;15.66;80.65
68648;SHT31;55632;51.962;16.116;2023-04-24T07:06:05;16.02;79.27
68648;SHT31;55632;51.962;16.116;2023-04-24T07:11:06;16.41;78.02
68648;SHT31;55632;51.962;16.116;2023-04-24T07:16:07;16.90;77.17
68648;SHT31;55632;51.962;16.116;2023-04-24T07:21:09;17.28;75.41
68648;SHT31;55632;51.962;16.116;2023-04-24T07:26:10;17.59;74.16
68648;SHT31;55632;51.962;16.116;2023-04-24T07:31:10;17.87;72.77
68648;SHT31;55632;51.962;16.116;2023-04-24T07:36:12;18.08;71.93
68648;SHT31;55632;51.962;16.116;2023-04-24T07:41:16;18.25;70.68
68648;SHT31;55632;51.962;16.116;2023-04-24T07:46:17;18.25;69.47
68648;SHT31;55632;51.962;16.116;2023-04-24T07:51:24;18.13;69.40
68648;SHT31;55632;51.962;16.116;2023-04-24T07:56:27;18.06;69.16
68648;SHT31;55632;51.962;16.116;2023-04-24T08:01:31;17.88;68.96
68648;SHT31;55632;51.962;16.116;2023-04-24T08:06:32;17.78;69.00
68648;SHT31;55632;51.962;16.116;2023-04-24T08:11:33;17.81;69.12
68648;SHT31;55632;51.962;16.116;2023-04-24T08:16:35;17.90;68.58
68648;SHT31;55632;51.962;16.116;2023-04-24T08:21:35;18.08;68.45
68648;SHT31;55632;51.962;16.116;2023-04-24T08:26:39;18.24;68.19
68648;SHT31;55632;51.962;16.116;2023-04-24T08:31:40;18.46;67.59
68648;SHT31;55632;51.962;16.116;2023-04-24T08:36:43;18.57;67.02
68648;SHT31;55632;51.962;16.116;2023-04-24T08:41:45;18.78;66.87
68648;SHT31;55632;51.962;16.116;2023-04-24T08:46:48;19.06;65.51
68648;SHT31;55632;51.962;16.116;2023-04-24T08:51:50;19.27;64.72
68648;SHT31;55632;51.962;16.116;2023-04-24T08:56:58;19.53;64.48
68648;SHT31;55632;51.962;16.116;2023-04-24T09:02:04;19.79;63.48
68648;SHT31;55632;51.962;16.116;2023-04-24T09:07:06;20.02;62.19
68648;SHT31;55632;51.962;16.116;2023-04-24T09:12:17;20.19;61.67
68648;SHT31;55632;51.962;16.116;2023-04-24T09:17:19;20.40;60.44
68648;SHT31;55632;51.962;16.116;2023-04-24T09:22:20;20.58;59.81
68648;SHT31;55632;51.962;16.116;2023-04-24T09:27:23;20.75;58.59
68648;SHT31;55632;51.962;16.116;2023-04-24T09:32:24;20.87;57.70
68648;SHT31;55632;51.962;16.116;2023-04-24T09:37:35;20.80;56.82
68648;SHT31;55632;51.962;16.116;2023-04-24T09:42:36;20.74;57.15
68648;SHT31;55632;51.962;16.116;2023-04-24T09:47:40;20.60;56.04
68648;SHT31;55632;51.962;16.116;2023-04-24T09:52:46;20.61;55.62
68648;SHT31;55632;51.962;16.116;2023-04-24T09:57:52;20.71;54.95
68648;SHT31;55632;51.962;16.116;2023-04-24T10:03:03;20.82;55.34
68648;SHT31;55632;51.962;16.116;2023-04-24T10:08:09;21.00;54.96
68648;SHT31;55632;51.962;16.116;2023-04-24T10:13:12;21.05;53.40
68648;SHT31;55632;51.962;16.116;2023-04-24T10:18:13;20.94;53.94
68648;SHT31;55632;51.962;16.116;2023-04-24T10:23:16;20.92;52.50
68648;SHT31;55632;51.962;16.116;2023-04-24T10:28:22;20.98;52.02
68648;SHT31;55632;51.962;16.116;2023-04-24T10:33:26;21.03;50.32
68648;SHT31;55632;51.962;16.116;2023-04-24T10:38:30;20.92;50.38
68648;SHT31;55632;51.962;16.116;2023-04-24T10:43:33;20.80;51.32
68648;SHT31;55632;51.962;16.116;2023-04-24T10:48:34;20.71;51.88
68648;SHT31;55632;51.962;16.116;2023-04-24T10:53:35;20.74;52.31
68648;SHT31;55632;51.962;16.116;2023-04-24T10:58:41;20.80;52.10
68648;SHT31;55632;51.962;16.116;2023-04-24T11:03:50;20.87;52.02
68648;SHT31;55632;51.962;16.116;2023-04-24T11:09:02;20.85;50.14
68648;SHT31;55632;51.962;16.116;2023-04-24T11:14:06;20.78;50.99
68648;SHT31;55632;51.962;16.116;2023-04-24T11:24:27;20.60;50.51
68648;SHT31;55632;51.962;16.116;2023-04-24T11:29:43;20.60;51.24
68648;SHT31;55632;51.962;16.116;2023-04-24T11:34:49;20.65;51.40
68648;SHT31;55632;51.962;16.116;2023-04-24T11:39:52;20.70;51.15
68648;SHT31;55632;51.962;16.116;2023-04-24T11:44:54;20.72;51.65
68648;SHT31;55632;51.962;16.116;2023-04-24T11:50:00;20.77;50.16
68648;SHT31;55632;51.962;16.116;2023-04-24T11:55:29;20.75;49.70
68648;SHT31;55632;51.962;16.116;2023-04-24T12:00:31;20.67;49.88
68648;SHT31;55632;51.962;16.116;2023-04-24T12:05:38;20.47;49.88
68648;SHT31;55632;51.962;16.116;2023-04-24T12:10:39;20.23;50.47
68648;SHT31;55632;51.962;16.116;2023-04-24T12:15:40;20.09;51.03
68648;SHT31;55632;51.962;16.116;2023-04-24T12:20:41;19.96;51.31
68648;SHT31;55632;51.962;16.116;2023-04-24T12:25:42;19.77;51.81
68648;SHT31;55632;51.962;16.116;2023-04-24T12:30:49;19.63;52.36
68648;SHT31;55632;51.962;16.116;2023-04-24T12:35:54;19.45;52.91
68648;SHT31;55632;51.962;16.116;2023-04-24T12:41:05;19.36;53.24
68648;SHT31;55632;51.962;16.116;2023-04-24T12:46:06;19.36;54.08
68648;SHT31;55632;51.962;16.116;2023-04-24T12:51:09;19.34;54.90
68648;SHT31;55632;51.962;16.116;2023-04-24T12:56:11;19.16;55.58
68648;SHT31;55632;51.962;16.116;2023-04-24T13:01:12;18.91;56.45
68648;SHT31;55632;51.962;16.116;2023-04-24T13:06:13;18.63;57.26
68648;SHT31;55632;51.962;16.116;2023-04-24T13:11:14;18.39;58.49
68648;SHT31;55632;51.962;16.116;2023-04-24T13:16:15;18.19;59.93
68648;SHT31;55632;51.962;16.116;2023-04-24T13:21:17;18.06;60.50
68648;SHT31;55632;51.962;16.116;2023-04-24T13:26:19;17.94;60.97
68648;SHT31;55632;51.962;16.116;2023-04-24T13:31:23;17.83;60.99
68648;SHT31;55632;51.962;16.116;2023-04-24T13:36:24;17.73;61.46
68648;SHT31;55632;51.962;16.116;2023-04-24T13:41:25;17.70;62.20
68648;SHT31;55632;51.962;16.116;2023-04-24T13:46:27;17.69;62.13
68648;SHT31;55632;51.962;16.116;2023-04-24T13:51:27;17.66;62.02
68648;SHT31;55632;51.962;16.116;2023-04-24T13:56:29;17.66;62.13
68648;SHT31;55632;51.962;16.116;2023-04-24T14:01:32;17.63;62.34
68648;SHT31;55632;51.962;16.116;2023-04-24T14:06:33;17.49;61.96
68648;SHT31;55632;51.962;16.116;2023-04-24T14:11:35;17.22;63.20
68648;SHT31;55632;51.962;16.116;2023-04-24T14:16:37;16.87;64.80
68648;SHT31;55632;51.962;16.116;2023-04-24T14:21:38;16.52;66.07
68648;SHT31;55632;51.962;16.116;2023-04-24T14:26:39;16.30;66.92
68648;SHT31;55632;51.962;16.116;2023-04-24T14:31:44;16.04;67.60
68648;SHT31;55632;51.962;16.116;2023-04-24T14:36:46;15.89;68.51
68648;SHT31;55632;51.962;16.116;2023-04-24T14:41:50;15.79;69.19
68648;SHT31;55632;51.962;16.116;2023-04-24T14:46:51;15.66;70.01
68648;SHT31;55632;51.962;16.116;2023-04-24T14:51:54;15.59;70.70
68648;SHT31;55632;51.962;16.116;2023-04-24T14:56:56;15.56;71.22
68648;SHT31;55632;51.962;16.116;2023-04-24T15:02:01;15.53;71.73
68648;SHT31;55632;51.962;16.116;2023-04-24T15:07:02;15.53;72.38
68648;SHT31;55632;51.962;16.116;2023-04-24T15:12:06;15.38;72.88
68648;SHT31;55632;51.962;16.116;2023-04-24T15:17:07;15.25;73.43
68648;SHT31;55632;51.962;16.116;2023-04-24T15:22:09;15.15;73.99
68648;SHT31;55632;51.962;16.116;2023-04-24T15:27:11;15.01;74.61
68648;SHT31;55632;51.962;16.116;2023-04-24T15:32:12;14.90;75.11
68648;SHT31;55632;51.962;16.116;2023-04-24T15:37:13;14.86;75.59
68648;SHT31;55632;51.962;16.116;2023-04-24T15:42:16;14.79;75.73
68648;SHT31;55632;51.962;16.116;2023-04-24T15:47:19;14.68;75.61
68648;SHT31;55632;51.962;16.116;2023-04-24T15:52:21;14.58;75.64
68648;SHT31;55632;51.962;16.116;2023-04-24T15:57:22;14.46;76.09
68648;SHT31;55632;51.962;16.116;2023-04-24T16:02:23;14.39;76.52
68648;SHT31;55632;51.962;16.116;2023-04-24T16:07:25;14.29;76.98
68648;SHT31;55632;51.962;16.116;2023-04-24T16:12:26;14.21;77.33
68648;SHT31;55632;51.962;16.116;2023-04-24T16:17:28;14.16;77.77
68648;SHT31;55632;51.962;16.116;2023-04-24T16:22:30;14.14;78.12
68648;SHT31;55632;51.962;16.116;2023-04-24T16:27:31;14.10;78.29
68648;SHT31;55632;51.962;16.116;2023-04-24T16:32:32;14.06;78.53
68648;SHT31;55632;51.962;16.116;2023-04-24T16:37:36;14.03;78.71
68648;SHT31;55632;51.962;16.116;2023-04-24T16:42:38;13.96;78.78
68648;SHT31;55632;51.962;16.116;2023-04-24T16:47:39;13.90;79.04
68648;SHT31;55632;51.962;16.116;2023-04-24T16:52:40;13.80;79.36
68648;SHT31;55632;51.962;16.116;2023-04-24T16:57:41;13.73;79.69
68648;SHT31;55632;51.962;16.116;2023-04-24T17:02:42;13.73;79.96
68648;SHT31;55632;51.962;16.116;2023-04-24T17:07:51;13.70;80.29
68648;SHT31;55632;51.962;16.116;2023-04-24T17:12:52;13.69;80.43
68648;SHT31;55632;51.962;16.116;2023-04-24T17:17:56;13.68;80.60
68648;SHT31;55632;51.962;16.116;2023-04-24T17:22:57;13.63;80.84
68648;SHT31;55632;51.962;16.116;2023-04-24T17:27:58;13.62;81.01
68648;SHT31;55632;51.962;16.116;2023-04-24T17:33:02;13.55;81.14
68648;SHT31;55632;51.962;16.116;2023-04-24T17:38:03;13.51;81.32
68648;SHT31;55632;51.962;16.116;2023-04-24T17:43:04;13.47;81.34
68648;SHT31;55632;51.962;16.116;2023-04-24T17:48:05;13.38;81.41
68648;SHT31;55632;51.962;16.116;2023-04-24T17:53:06;13.28;81.53
68648;SHT31;55632;51.962;16.116;2023-04-24T17:58:08;13.18;81.67
68648;SHT31;55632;51.962;16.116;2023-04-24T18:03:09;13.11;81.79
68648;SHT31;55632;51.962;16.116;2023-04-24T18:08:10;13.03;81.97
68648;SHT31;55632;51.962;16.116;2023-04-24T18:13:11;12.90;82.13
68648;SHT31;55632;51.962;16.116;2023-04-24T18:18:12;12.80;82.35
68648;SHT31;55632;51.962;16.116;2023-04-24T18:23:14;12.71;82.44
68648;SHT31;55632;51.962;16.116;2023-04-24T18:28:15;12.62;82.59
68648;SHT31;55632;51.962;16.116;2023-04-24T18:33:16;12.52;82.68
68648;SHT31;55632;51.962;16.116;2023-04-24T18:38:18;12.41;82.74
68648;SHT31;55632;51.962;16.116;2023-04-24T18:43:20;12.33;82.83
68648;SHT31;55632;51.962;16.116;2023-04-24T18:48:21;12.27;83.02
68648;SHT31;55632;51.962;16.116;2023-04-24T18:53:25;12.21;83.08
68648;SHT31;55632;51.962;16.116;2023-04-24T18:58:29;12.16;83.19
68648;SHT31;55632;51.962;16.116;2023-04-24T19:03:30;12.12;83.32
68648;SHT31;55632;51.962;16.116;2023-04-24T19:08:32;12.06;83.34
68648;SHT31;55632;51.962;16.116;2023-04-24T19:13:33;11.96;83.24
68648;SHT31;55632;51.962;16.116;2023-04-24T19:18:35;11.85;83.47
68648;SHT31;55632;51.962;16.116;2023-04-24T19:23:36;11.72;83.60
68648;SHT31;55632;51.962;16.116;2023-04-24T19:28:40;11.68;83.81
68648;SHT31;55632;51.962;16.116;2023-04-24T19:33:41;11.59;83.82
68648;SHT31;55632;51.962;16.116;2023-04-24T19:38:45;11.50;83.91
68648;SHT31;55632;51.962;16.116;2023-04-24T19:43:47;11.42;83.94
68648;SHT31;55632;51.962;16.116;2023-04-24T19:48:49;11.35;84.06
68648;SHT31;55632;51.962;16.116;2023-04-24T19:53:50;11.27;84.30
68648;SHT31;55632;51.962;16.116;2023-04-24T19:58:51;11.26;84.54
68648;SHT31;55632;51.962;16.116;2023-04-24T20:03:52;11.24;84.76
68648;SHT31;55632;51.962;16.116;2023-04-24T20:08:53;11.26;84.85
68648;SHT31;55632;51.962;16.116;2023-04-24T20:13:54;11.23;84.94
68648;SHT31;55632;51.962;16.116;2023-04-24T20:18:56;11.23;84.90
68648;SHT31;55632;51.962;16.116;2023-04-24T20:23:57;11.22;84.83
68648;SHT31;55632;51.962;16.116;2023-04-24T20:28:58;11.23;84.61
68648;SHT31;55632;51.962;16.116;2023-04-24T20:34:00;11.23;84.24
68648;SHT31;55632;51.962;16.116;2023-04-24T20:39:02;11.22;83.88
68648;SHT31;55632;51.962;16.116;2023-04-24T20:44:06;11.19;83.37
68648;SHT31;55632;51.962;16.116;2023-04-24T20:49:07;11.19;82.87
68648;SHT31;55632;51.962;16.116;2023-04-24T20:54:09;11.16;82.24
68648;SHT31;55632;51.962;16.116;2023-04-24T20:59:10;11.17;81.54
68648;SHT31;55632;51.962;16.116;2023-04-24T21:04:11;11.12;80.80
68648;SHT31;55632;51.962;16.116;2023-04-24T21:09:12;11.07;80.35
68648;SHT31;55632;51.962;16.116;2023-04-24T21:14:13;10.99;79.74
68648;SHT31;55632;51.962;16.116;2023-04-24T21:19:14;10.93;79.20
68648;SHT31;55632;51.962;16.116;2023-04-24T21:24:15;10.89;78.94
68648;SHT31;55632;51.962;16.116;2023-04-24T21:29:16;10.85;78.54
68648;SHT31;55632;51.962;16.116;2023-04-24T21:34:17;10.78;78.30
68648;SHT31;55632;51.962;16.116;2023-04-24T21:39:18;10.73;77.69
68648;SHT31;55632;51.962;16.116;2023-04-24T21:44:20;10.68;76.62
68648;SHT31;55632;51.962;16.116;2023-04-24T21:49:21;10.65;76.19
68648;SHT31;55632;51.962;16.116;2023-04-24T21:54:22;10.60;75.85
68648;SHT31;55632;51.962;16.116;2023-04-24T21:59:23;10.53;75.64
68648;SHT31;55632;51.962;16.116;2023-04-24T22:04:24;10.47;75.30
68648;SHT31;55632;51.962;16.116;2023-04-24T22:09:25;10.41;74.65
68648;SHT31;55632;51.962;16.116;2023-04-24T22:14:26;10.37;74.23
68648;SHT31;55632;51.962;16.116;2023-04-24T22:19:27;10.33;73.64
68648;SHT31;55632;51.962;16.116;2023-04-24T22:24:28;10.27;73.51
68648;SHT31;55632;51.962;16.116;2023-04-24T22:29:30;10.24;73.06
68648;SHT31;55632;51.962;16.116;2023-04-24T22:34:31;10.21;71.83
68648;SHT31;55632;51.962;16.116;2023-04-24T22:39:32;10.19;71.19
68648;SHT31;55632;51.962;16.116;2023-04-24T22:44:33;10.16;71.19
68648;SHT31;55632;51.962;16.116;2023-04-24T22:49:34;10.09;71.22
68648;SHT31;55632;51.962;16.116;2023-04-24T22:54:35;10.03;71.18
68648;SHT31;55632;51.962;16.116;2023-04-24T22:59:36;9.96;71.05
68648;SHT31;55632;51.962;16.116;2023-04-24T23:04:37;9.89;71.18
68648;SHT31;55632;51.962;16.116;2023-04-24T23:09:41;9.84;71.11
68648;SHT31;55632;51.962;16.116;2023-04-24T23:14:42;9.78;71.13
68648;SHT31;55632;51.962;16.116;2023-04-24T23:19:43;9.73;71.18
68648;SHT31;55632;51.962;16.116;2023-04-24T23:24:44;9.65;71.24
68648;SHT31;55632;51.962;16.116;2023-04-24T23:29:45;9.59;71.35
68648;SHT31;55632;51.962;16.116;2023-04-24T23:34:46;9.54;71.48
68648;SHT31;55632;51.962;16.116;2023-04-24T23:39:48;9.47;71.72
68648;SHT31;55632;51.962;16.116;2023-04-24T23:44:48;9.43;71.82
68648;SHT31;55632;51.962;16.116;2023-04-24T23:49:49;9.36;71.86
68648;SHT31;55632;51.962;16.116;2023-04-24T23:54:50;9.32;71.92
68648;SHT31;55632;51.962;16.116;2023-04-24T23:59:51;9.30;71.94
